KHYR/HYR METAR and TAF weather

Enter ICAO airport designator
Station Type Date Time Source
KHYR METAR 2020/03/31 13:53 UTC NOAA

KHYR 311353Z AUTO 03005KT 10SM CLR M01/M03 A3020 RMK AO2 SLP240 T10061033


Station Type Date Time Source
KHYR Decoded METAR 2020/03/31 13:53 UTC NOAA

HAYWARD MUNICIPAL AIRPORT, WI, United States (KHYR) 46-01N 91-27W 370M
Mar 31, 2020 - 09:53 AM EDT / 2020.03.31 1353 UTC
Wind: from the NNE (030 degrees) at 6 MPH (5 KT):0
Visibility: 10 mile(s):0
Sky conditions: clear
Temperature: 30.9 F (-0.6 C)
Windchill: 24 F (-4 C):1
Dew Point: 26.1 F (-3.3 C)
Relative Humidity: 81%
Pressure (altimeter): 30.2 in. Hg (1022 hPa)
ob: KHYR 311353Z AUTO 03005KT 10SM CLR M01/M03 A3020 RMK AO2 SLP240 T10061033
cycle: 14

Station Type Date Time Source
KHYR TAF 2020/03/31 12:27 UTC NOAA

TAF KHYR 311125Z 3112/0112 VRB03KT P6SM FEW250
FM010600 VRB03KT P6SM BKN050
FM010800 VRB03KT P6SM BKN025

Example: see airport list